createdAt,value
2022-11-29T00:00:58.539Z,64.94
2022-11-29T00:04:01.527Z,65.36
2022-11-29T00:07:03.646Z,66.38
2022-11-29T00:10:06.357Z,66.96
2022-11-29T00:13:08.398Z,67.73
2022-11-29T00:16:12.419Z,67.85
2022-11-29T00:19:14.475Z,67.87
2022-11-29T00:22:16.541Z,67.66
2022-11-29T00:25:18.705Z,67.95
2022-11-29T00:28:20.841Z,68.18
2022-11-29T00:31:26.509Z,67.98
2022-11-29T00:34:29.031Z,67.41
2022-11-29T00:37:31.189Z,66.09
2022-11-29T00:40:33.184Z,66.36
2022-11-29T00:43:35.793Z,65.60
2022-11-29T00:46:38.286Z,66.06
2022-11-29T00:49:40.442Z,65.73
2022-11-29T00:52:42.419Z,65.79
2022-11-29T00:55:50.505Z,66.00
2022-11-29T00:58:52.603Z,67.36
2022-11-29T01:01:54.682Z,67.64
2022-11-29T01:04:56.682Z,67.55
2022-11-29T01:07:58.947Z,68.60
2022-11-29T01:11:25.582Z,68.55
2022-11-29T01:14:27.655Z,68.28
2022-11-29T01:17:34.748Z,68.63
2022-11-29T01:20:36.809Z,68.39
2022-11-29T01:23:39.455Z,67.89
2022-11-29T01:26:42.135Z,67.01
2022-11-29T01:29:45.147Z,66.77
2022-11-29T01:32:47.203Z,66.83
2022-11-29T01:35:54.451Z,66.20
2022-11-29T01:38:56.588Z,66.34
2022-11-29T01:42:00.201Z,66.60
2022-11-29T01:45:04.615Z,66.40
2022-11-29T01:48:06.754Z,67.49
2022-11-29T01:51:08.808Z,67.70
2022-11-29T01:54:12.490Z,68.57
2022-11-29T01:57:14.745Z,68.24
2022-11-29T02:00:18.734Z,68.09
2022-11-29T02:03:21.893Z,68.99
2022-11-29T02:06:24.389Z,69.00
2022-11-29T02:09:26.710Z,69.12
2022-11-29T02:12:52.889Z,68.05
2022-11-29T02:16:09.317Z,67.25
2022-11-29T02:19:43.959Z,66.74
2022-11-29T02:23:07.350Z,66.60
2022-11-29T02:26:12.288Z,66.83
2022-11-29T02:29:33.817Z,66.09
2022-11-29T02:32:44.785Z,65.86
2022-11-29T02:35:57.224Z,67.08
2022-11-29T02:39:24.503Z,68.08
2022-11-29T02:43:02.669Z,68.41
2022-11-29T02:46:49.845Z,68.16
2022-11-29T02:50:16.286Z,68.41
2022-11-29T02:53:35.590Z,68.58
2022-11-29T02:56:46.554Z,68.19
2022-11-29T03:00:05.239Z,68.78
2022-11-29T03:03:14.800Z,67.32
2022-11-29T03:06:26.164Z,66.29
2022-11-29T03:09:46.630Z,66.46
2022-11-29T03:12:53.129Z,66.39
2022-11-29T03:16:18.049Z,65.99
2022-11-29T03:19:57.200Z,66.22
2022-11-29T03:23:14.322Z,66.68
2022-11-29T03:26:24.930Z,67.61
2022-11-29T03:29:35.777Z,68.23
2022-11-29T03:32:55.858Z,67.80
2022-11-29T03:36:14.535Z,67.84
2022-11-29T03:39:30.345Z,68.86
2022-11-29T03:42:40.060Z,68.35
2022-11-29T03:45:49.475Z,68.15
2022-11-29T03:49:00.686Z,67.67
2022-11-29T03:52:21.589Z,66.21
2022-11-29T03:55:57.189Z,66.08
2022-11-29T03:59:24.761Z,65.91
2022-11-29T04:02:48.656Z,65.36
2022-11-29T04:05:50.632Z,66.15
2022-11-29T04:09:21.487Z,65.85
2022-11-29T04:12:49.148Z,66.98
2022-11-29T04:16:44.551Z,67.72
2022-11-29T04:20:10.732Z,68.19
2022-11-29T04:23:51.140Z,67.49
2022-11-29T04:27:23.977Z,68.04
2022-11-29T04:30:28.406Z,67.79
2022-11-29T04:34:04.169Z,68.10
2022-11-29T04:37:15.033Z,66.94
2022-11-29T04:40:44.557Z,66.33
2022-11-29T04:44:07.716Z,66.14
2022-11-29T04:47:52.668Z,66.02
2022-11-29T04:50:58.760Z,66.08
2022-11-29T04:54:35.705Z,65.75
2022-11-29T04:57:47.516Z,65.65
2022-11-29T05:01:19.225Z,67.55
2022-11-29T05:04:36.674Z,68.13
2022-11-29T05:08:07.624Z,68.20
2022-11-29T05:11:09.888Z,68.15
2022-11-29T05:14:56.592Z,68.00
2022-11-29T05:18:43.324Z,68.86
2022-11-29T05:22:11.843Z,68.63
2022-11-29T05:25:31.703Z,67.99
2022-11-29T05:28:54.221Z,66.57
2022-11-29T05:32:21.804Z,61.97
2022-11-29T05:35:40.582Z,57.46
2022-11-29T05:39:01.947Z,52.25
2022-11-29T05:42:21.967Z,49.95
2022-11-29T05:45:31.094Z,50.16
2022-11-29T05:49:01.246Z,50.81
2022-11-29T05:52:25.199Z,55.94
2022-11-29T05:55:30.051Z,58.53
2022-11-29T05:58:58.639Z,58.44
2022-11-29T06:02:09.982Z,61.08
2022-11-29T06:05:33.911Z,66.40
2022-11-29T06:08:58.698Z,65.93
2022-11-29T06:12:06.956Z,64.26
2022-11-29T06:15:19.690Z,62.90
2022-11-29T06:18:46.354Z,69.29
2022-11-29T06:22:07.272Z,66.93
2022-11-29T06:25:39.498Z,63.79
2022-11-29T06:29:18.638Z,61.63
2022-11-29T06:32:45.407Z,61.22
2022-11-29T06:36:07.961Z,58.50
2022-11-29T06:39:11.094Z,60.74
2022-11-29T06:42:13.366Z,60.84
2022-11-29T06:45:17.248Z,65.46
2022-11-29T06:48:26.336Z,70.64
2022-11-29T06:52:02.366Z,72.88
2022-11-29T06:55:22.979Z,71.14
2022-11-29T06:58:52.273Z,70.18
2022-11-29T07:02:20.505Z,67.88
2022-11-29T07:05:33.690Z,61.49
2022-11-29T07:08:35.924Z,65.87
2022-11-29T07:11:38.453Z,67.22
2022-11-29T07:14:40.899Z,64.73
2022-11-29T07:18:30.316Z,64.37
2022-11-29T07:21:44.244Z,65.34
2022-11-29T07:25:02.164Z,65.00
2022-11-29T07:28:27.361Z,64.36
2022-11-29T07:31:51.262Z,65.88
2022-11-29T07:35:35.288Z,64.89
2022-11-29T07:39:05.509Z,63.35
2022-11-29T07:42:10.522Z,62.44
2022-11-29T07:45:23.896Z,63.66
2022-11-29T07:48:27.086Z,62.79
2022-11-29T07:51:29.459Z,62.22
2022-11-29T07:54:31.689Z,61.39
2022-11-29T07:57:36.755Z,61.05
2022-11-29T08:00:39.875Z,60.37
2022-11-29T08:03:43.331Z,59.38
2022-11-29T08:06:45.391Z,59.93
2022-11-29T08:09:47.600Z,60.72
2022-11-29T08:12:51.158Z,61.38
2022-11-29T08:15:53.294Z,61.98
2022-11-29T08:18:55.544Z,61.28
2022-11-29T08:21:57.760Z,62.94
2022-11-29T08:25:00.287Z,61.79
2022-11-29T08:28:03.991Z,63.68
2022-11-29T08:31:08.268Z,63.08
2022-11-29T08:34:10.951Z,62.80
2022-11-29T08:37:12.991Z,63.98
2022-11-29T08:40:16.073Z,63.37
2022-11-29T08:43:18.056Z,64.44
2022-11-29T08:46:20.801Z,60.89
2022-11-29T08:49:23.245Z,63.19
2022-11-29T08:52:46.950Z,62.37
2022-11-29T08:55:50.717Z,61.72
2022-11-29T08:58:54.193Z,62.25
2022-11-29T09:01:56.350Z,60.94
2022-11-29T09:04:58.369Z,61.31
2022-11-29T09:08:00.626Z,59.99
2022-11-29T09:11:15.614Z,58.90
2022-11-29T09:14:18.344Z,59.12
2022-11-29T09:17:20.617Z,59.68
2022-11-29T09:20:22.731Z,60.82
2022-11-29T09:23:25.467Z,64.86
2022-11-29T09:26:32.231Z,64.47
2022-11-29T09:29:34.273Z,65.72
2022-11-29T09:32:36.420Z,65.86
2022-11-29T09:35:38.511Z,67.48
2022-11-29T09:38:40.900Z,67.18
2022-11-29T09:41:57.312Z,64.81
2022-11-29T09:45:07.733Z,65.07
2022-11-29T09:48:15.911Z,65.41
2022-11-29T09:51:28.150Z,68.29
2022-11-29T09:54:41.784Z,67.80
2022-11-29T09:57:45.004Z,68.40
2022-11-29T10:01:03.776Z,68.58
2022-11-29T10:04:12.582Z,67.18
2022-11-29T10:07:22.650Z,68.86
2022-11-29T10:10:40.980Z,66.23
2022-11-29T10:13:49.085Z,65.03
2022-11-29T10:17:06.396Z,65.35
2022-11-29T10:20:19.074Z,65.82
2022-11-29T10:23:44.457Z,63.50
2022-11-29T10:26:46.912Z,62.91
2022-11-29T10:29:51.290Z,65.17
2022-11-29T10:33:02.811Z,66.10
2022-11-29T10:36:29.134Z,62.13
2022-11-29T10:39:46.228Z,62.92
2022-11-29T10:42:55.408Z,63.41
2022-11-29T10:45:58.937Z,60.76
2022-11-29T10:49:13.461Z,60.91
2022-11-29T10:52:22.227Z,63.88
2022-11-29T10:55:26.405Z,61.03
2022-11-29T10:58:31.263Z,57.80
2022-11-29T11:01:38.696Z,60.76
2022-11-29T11:04:47.061Z,61.90
2022-11-29T11:07:57.869Z,58.94
2022-11-29T11:11:02.185Z,57.56
2022-11-29T11:14:18.393Z,62.04
2022-11-29T11:17:33.105Z,63.41
2022-11-29T11:20:38.277Z,60.57
2022-11-29T11:23:58.188Z,58.84
2022-11-29T11:27:01.250Z,61.88
2022-11-29T11:30:07.203Z,61.36
2022-11-29T11:33:22.185Z,58.83
2022-11-29T11:36:28.033Z,60.79
2022-11-29T11:39:30.236Z,62.55
2022-11-29T11:42:38.555Z,59.10
2022-11-29T11:45:40.570Z,59.23
2022-11-29T11:48:42.692Z,62.06
2022-11-29T11:51:44.748Z,62.60
2022-11-29T11:55:00.559Z,60.81
2022-11-29T11:58:12.454Z,62.61
2022-11-29T12:01:24.754Z,62.10
2022-11-29T12:04:38.140Z,59.60
2022-11-29T12:08:11.065Z,62.02
2022-11-29T12:11:17.733Z,63.93
2022-11-29T12:14:48.591Z,60.56
2022-11-29T12:18:00.539Z,61.23
2022-11-29T12:21:18.103Z,61.86
2022-11-29T12:24:29.482Z,60.87
2022-11-29T12:27:32.140Z,60.04
2022-11-29T12:30:34.698Z,60.76
2022-11-29T12:34:10.206Z,62.43
2022-11-29T12:37:38.219Z,62.29
2022-11-29T12:41:17.737Z,62.48
2022-11-29T12:44:53.908Z,62.80
2022-11-29T12:48:18.901Z,62.43
2022-11-29T12:51:21.003Z,61.67
2022-11-29T12:54:46.377Z,61.94
2022-11-29T12:57:52.931Z,62.77
2022-11-29T13:01:21.959Z,61.31
2022-11-29T13:04:59.751Z,60.86
2022-11-29T13:08:37.579Z,62.46
2022-11-29T13:12:02.123Z,60.05
2022-11-29T13:15:17.806Z,59.88
2022-11-29T13:18:35.695Z,61.83
2022-11-29T13:21:44.055Z,60.05
2022-11-29T13:24:53.651Z,59.55
2022-11-29T13:28:03.327Z,59.96
2022-11-29T13:31:09.758Z,61.17
2022-11-29T13:34:26.886Z,59.83
2022-11-29T13:37:47.456Z,60.88
2022-11-29T13:41:28.101Z,63.79
2022-11-29T13:44:37.201Z,64.80
2022-11-29T13:47:49.686Z,65.10
2022-11-29T13:50:51.826Z,65.35
2022-11-29T13:53:58.053Z,64.53
2022-11-29T13:57:08.765Z,64.81
2022-11-29T14:00:33.869Z,61.59
2022-11-29T14:03:39.720Z,62.58
2022-11-29T14:06:41.789Z,62.64
2022-11-29T14:09:49.698Z,63.02
2022-11-29T14:12:56.977Z,61.98
2022-11-29T14:16:03.550Z,63.09
2022-11-29T14:19:08.449Z,61.15
2022-11-29T14:22:13.339Z,60.69
2022-11-29T14:28:48.408Z,61.66
2022-11-29T14:31:52.148Z,62.28
2022-11-29T14:35:12.443Z,62.95
2022-11-29T14:38:38.368Z,63.71
2022-11-29T14:42:01.345Z,64.22
2022-11-29T14:45:06.498Z,63.88
2022-11-29T14:48:32.136Z,66.50
2022-11-29T14:51:35.313Z,66.23
2022-11-29T14:54:54.386Z,64.85
2022-11-29T14:58:19.156Z,63.96
2022-11-29T15:01:21.341Z,64.62
2022-11-29T15:04:29.024Z,66.19
2022-11-29T15:07:32.946Z,68.37
2022-11-29T15:10:41.017Z,69.68
2022-11-29T15:13:56.017Z,69.96
2022-11-29T15:21:03.662Z,69.26
2022-11-29T15:24:51.307Z,69.02
2022-11-29T15:27:55.721Z,69.45
2022-11-29T15:31:23.153Z,70.13
2022-11-29T15:34:41.905Z,70.95
2022-11-29T15:41:47.985Z,77.63
2022-11-29T15:44:53.537Z,77.37
2022-11-29T15:48:26.072Z,65.20
2022-11-29T15:51:36.422Z,76.70
2022-11-29T15:54:48.113Z,84.10
2022-11-29T15:57:56.091Z,83.04
2022-11-29T16:01:02.063Z,81.69
2022-11-29T16:04:04.941Z,81.16
2022-11-29T16:07:11.219Z,80.63
2022-11-29T16:10:21.618Z,81.67
2022-11-29T16:13:34.927Z,79.08
2022-11-29T16:16:38.966Z,79.46
2022-11-29T16:19:43.608Z,79.94
2022-11-29T16:22:47.578Z,78.34
2022-11-29T16:26:07.258Z,81.27
2022-11-29T16:29:41.753Z,88.90
2022-11-29T16:32:53.230Z,96.36
2022-11-29T16:36:28.067Z,86.73
2022-11-29T16:39:35.396Z,74.10
2022-11-29T16:42:38.990Z,64.30
2022-11-29T16:45:43.040Z,60.89
2022-11-29T16:48:45.124Z,64.57
2022-11-29T16:51:48.810Z,67.40
2022-11-29T16:54:52.407Z,66.62
2022-11-29T16:57:56.114Z,60.81
2022-11-29T17:00:59.227Z,56.42
2022-11-29T17:04:02.248Z,53.42
2022-11-29T17:07:11.077Z,51.30
2022-11-29T17:10:19.767Z,49.61
2022-11-29T17:13:21.971Z,49.02
2022-11-29T17:16:25.868Z,47.81
2022-11-29T17:19:29.852Z,46.96
2022-11-29T17:22:37.817Z,47.20
2022-11-29T17:29:05.696Z,46.58
2022-11-29T17:32:07.816Z,46.31
2022-11-29T17:35:35.154Z,46.26
2022-11-29T17:38:37.356Z,47.86
2022-11-29T17:41:39.356Z,48.36
2022-11-29T17:44:42.661Z,48.09
2022-11-29T17:47:44.721Z,48.28
2022-11-29T17:50:52.288Z,48.76
2022-11-29T17:54:00.140Z,48.49
2022-11-29T17:57:05.035Z,48.99
2022-11-29T18:00:09.048Z,49.07
2022-11-29T18:03:15.797Z,49.97
2022-11-29T18:06:43.592Z,49.25
2022-11-29T18:09:59.070Z,50.53
2022-11-29T18:13:01.171Z,49.68
2022-11-29T18:16:18.978Z,49.25
2022-11-29T18:19:25.752Z,49.36
2022-11-29T18:22:30.632Z,53.68
2022-11-29T18:25:40.312Z,65.95
2022-11-29T18:28:46.890Z,71.24
2022-11-29T18:31:55.961Z,73.13
2022-11-29T18:35:00.172Z,77.22
2022-11-29T18:38:18.899Z,80.38
2022-11-29T18:41:28.447Z,86.06
2022-11-29T18:44:32.611Z,83.33
2022-11-29T18:47:37.763Z,82.13
2022-11-29T18:50:39.996Z,82.36
2022-11-29T18:53:43.228Z,81.05
2022-11-29T18:56:47.154Z,82.34
2022-11-29T18:59:50.559Z,83.68
2022-11-29T19:02:54.032Z,85.42
2022-11-29T19:05:58.943Z,86.49
2022-11-29T19:09:01.485Z,86.99
2022-11-29T19:12:05.402Z,85.03
2022-11-29T19:15:09.211Z,85.50
2022-11-29T19:18:11.234Z,84.91
2022-11-29T19:21:18.102Z,84.92
2022-11-29T19:24:20.943Z,82.54
2022-11-29T19:27:50.378Z,79.32
2022-11-29T19:30:56.216Z,78.51
2022-11-29T19:34:01.181Z,77.02
2022-11-29T19:37:04.212Z,76.38
2022-11-29T19:40:11.185Z,74.35
2022-11-29T19:43:13.296Z,74.45
2022-11-29T19:46:20.908Z,74.04
2022-11-29T19:49:23.091Z,72.63
2022-11-29T19:52:25.701Z,71.67
2022-11-29T19:55:27.747Z,72.26
2022-11-29T19:58:30.223Z,70.92
2022-11-29T20:01:40.291Z,71.60
2022-11-29T20:04:54.593Z,71.50
2022-11-29T20:07:56.707Z,72.04
2022-11-29T20:11:18.499Z,71.19
2022-11-29T20:14:20.846Z,71.14
2022-11-29T20:17:22.930Z,70.86
2022-11-29T20:20:29.708Z,70.74
2022-11-29T20:23:33.583Z,71.43
2022-11-29T20:26:42.185Z,71.10
2022-11-29T20:29:44.675Z,71.12
2022-11-29T20:32:47.096Z,71.09
2022-11-29T20:36:13.058Z,70.43
2022-11-29T20:39:52.300Z,70.57
2022-11-29T20:43:20.647Z,69.74
2022-11-29T20:46:28.209Z,69.98
2022-11-29T20:49:32.586Z,70.02
2022-11-29T20:52:51.813Z,69.10
2022-11-29T20:55:55.443Z,69.60
2022-11-29T20:58:57.513Z,68.43
2022-11-29T21:02:01.508Z,68.30
2022-11-29T21:05:04.333Z,67.90
2022-11-29T21:08:07.775Z,67.64
2022-11-29T21:11:13.686Z,66.63
2022-11-29T21:14:18.557Z,67.46
2022-11-29T21:17:20.844Z,67.58
2022-11-29T21:20:26.105Z,67.30
2022-11-29T21:23:57.389Z,66.76
2022-11-29T21:26:59.832Z,66.89
2022-11-29T21:30:05.581Z,66.89
2022-11-29T21:33:08.332Z,67.21
2022-11-29T21:36:13.318Z,67.52
2022-11-29T21:39:16.728Z,67.27
2022-11-29T21:42:18.841Z,68.24
2022-11-29T21:45:20.985Z,67.46
2022-11-29T21:48:35.217Z,67.82
2022-11-29T21:51:38.292Z,67.84
2022-11-29T21:54:40.517Z,68.07
2022-11-29T21:57:42.587Z,67.84
2022-11-29T22:00:45.724Z,68.21
2022-11-29T22:03:48.305Z,67.99
2022-11-29T22:06:50.528Z,67.64
2022-11-29T22:09:52.976Z,68.54
2022-11-29T22:12:55.494Z,68.22
2022-11-29T22:16:08.811Z,69.20
2022-11-29T22:19:12.607Z,69.15
2022-11-29T22:22:14.757Z,69.79
2022-11-29T22:25:16.698Z,69.34
2022-11-29T22:28:18.854Z,69.86
2022-11-29T22:31:20.906Z,70.20
2022-11-29T22:34:25.336Z,70.55
2022-11-29T22:37:28.289Z,70.15
2022-11-29T22:40:30.440Z,69.92
2022-11-29T22:43:36.275Z,69.33
2022-11-29T22:46:41.120Z,69.06
2022-11-29T22:49:44.712Z,68.97
2022-11-29T22:52:46.838Z,69.39
2022-11-29T22:55:49.158Z,68.66
2022-11-29T22:58:51.461Z,69.10
2022-11-29T23:01:53.567Z,69.07
2022-11-29T23:04:55.629Z,69.86
2022-11-29T23:07:58.550Z,70.17
2022-11-29T23:11:04.433Z,70.85
2022-11-29T23:14:06.488Z,71.26
2022-11-29T23:17:08.571Z,70.94
2022-11-29T23:20:11.070Z,71.30
2022-11-29T23:23:13.249Z,71.59
2022-11-29T23:26:30.514Z,71.21
2022-11-29T23:29:32.629Z,70.13
2022-11-29T23:32:34.899Z,69.88
2022-11-29T23:35:37.129Z,70.44
2022-11-29T23:38:39.253Z,70.24
2022-11-29T23:41:41.371Z,70.20
2022-11-29T23:44:45.215Z,70.48
2022-11-29T23:47:48.849Z,70.13
2022-11-29T23:50:51.337Z,70.54
2022-11-29T23:53:54.279Z,71.69
2022-11-29T23:56:56.389Z,71.64
2022-11-29T23:59:59.058Z,71.66
